Time;durP1;ratioP1;P1;durP2;ratioP2;P2;SDS_P1;SDS_P2;PMS_P1;PMS_P2;Temp;Humidity;BMP_temperature;BMP_pressure;BME280_temperature;BME280_humidity;BME280_pressure;Samples;Min_cycle;Max_cycle;Signal;HPM_P1;HPM_P2
2022/12/19 00:02:10;;;;;;;8.43;4.65;;;;;;;;;;5098852;28;20089;-44
2022/12/19 00:04:36;;;;;;;6.90;4.88;;;;;;;;;;5091772;28;20024;-44
2022/12/19 00:07:02;;;;;;;8.98;5.15;;;;;;;;;;5092556;28;20032;-44
2022/12/19 00:09:28;;;;;;;6.13;4.22;;;;;;;;;;5092891;28;20028;-47
2022/12/19 00:11:54;;;;;;;8.98;5.10;;;;;;;;;;5091641;28;20028;-43
2022/12/19 00:14:20;;;;;;;6.90;4.63;;;;;;;;;;5091191;28;20024;-44
2022/12/19 00:16:46;;;;;;;7.80;5.07;;;;;;;;;;5092718;28;20575;-43
2022/12/19 00:19:12;;;;;;;8.00;4.95;;;;;;;;;;5092904;28;20020;-43
2022/12/19 00:21:38;;;;;;;9.90;6.35;;;;;;;;;;5091530;28;20488;-44
2022/12/19 00:24:05;;;;;;;11.13;5.57;;;;;;;;;;5092619;28;20016;-44
2022/12/19 00:26:32;;;;;;;7.47;4.75;;;;;;;;;;5091182;28;20039;-47
2022/12/19 00:28:59;;;;;;;7.00;5.13;;;;;;;;;;5091651;28;20020;-41
2022/12/19 00:31:27;;;;;;;6.68;4.32;;;;;;;;;;5092243;28;20107;-41
2022/12/19 00:33:53;;;;;;;6.88;4.60;;;;;;;;;;5099436;28;20035;-41
2022/12/19 00:36:21;;;;;;;8.10;5.28;;;;;;;;;;5080660;28;20376;-41
2022/12/19 00:38:47;;;;;;;7.97;5.13;;;;;;;;;;5088806;28;20060;-42
2022/12/19 00:41:16;;;;;;;10.75;5.72;;;;;;;;;;5092438;28;20354;-41
2022/12/19 00:43:43;;;;;;;8.10;5.20;;;;;;;;;;5084942;28;20081;-41
2022/12/19 00:46:13;;;;;;;9.65;5.65;;;;;;;;;;5092380;28;20073;-41
2022/12/19 00:48:40;;;;;;;7.32;5.00;;;;;;;;;;5083512;28;20020;-41
2022/12/19 00:51:07;;;;;;;7.18;4.70;;;;;;;;;;5092734;28;20036;-41
2022/12/19 00:53:34;;;;;;;7.63;5.07;;;;;;;;;;5091076;28;20055;-42
2022/12/19 00:56:03;;;;;;;5.25;4.20;;;;;;;;;;5091425;28;20052;-41
2022/12/19 00:58:29;;;;;;;8.63;5.25;;;;;;;;;;5098867;28;20020;-45
2022/12/19 01:00:56;;;;;;;8.63;5.30;;;;;;;;;;5072726;28;20111;-41
2022/12/19 01:03:22;;;;;;;7.80;5.30;;;;;;;;;;5091652;28;20396;-41
2022/12/19 01:05:49;;;;;;;8.27;5.55;;;;;;;;;;5090031;28;20623;-41
2022/12/19 01:08:15;;;;;;;7.43;4.60;;;;;;;;;;5080645;28;20028;-41
2022/12/19 01:10:45;;;;;;;5.78;4.40;;;;;;;;;;5090842;28;20484;-41
2022/12/19 01:13:11;;;;;;;6.60;4.75;;;;;;;;;;5087403;28;20103;-42
2022/12/19 01:15:40;;;;;;;7.68;4.78;;;;;;;;;;5085836;28;20090;-41
2022/12/19 01:18:09;;;;;;;7.47;5.68;;;;;;;;;;5081831;28;20024;-41
2022/12/19 01:20:37;;;;;;;6.65;4.78;;;;;;;;;;5090868;28;20028;-41
2022/12/19 01:23:03;;;;;;;8.38;5.28;;;;;;;;;;5091669;28;20030;-41
2022/12/19 01:25:29;;;;;;;6.20;4.85;;;;;;;;;;5090037;28;20448;-45
2022/12/19 01:27:56;;;;;;;10.55;5.68;;;;;;;;;;5091108;28;20032;-41
2022/12/19 01:30:22;;;;;;;8.48;5.82;;;;;;;;;;5104942;28;20020;-42
2022/12/19 01:32:48;;;;;;;10.07;6.85;;;;;;;;;;5091192;28;20035;-41
2022/12/19 01:35:14;;;;;;;6.95;4.78;;;;;;;;;;5091809;28;20028;-41
2022/12/19 01:37:40;;;;;;;7.53;5.18;;;;;;;;;;5088607;28;20024;-41
2022/12/19 01:40:06;;;;;;;7.40;5.03;;;;;;;;;;5092136;28;20023;-41
2022/12/19 01:42:36;;;;;;;6.47;5.03;;;;;;;;;;5094368;28;20032;-44
2022/12/19 01:45:02;;;;;;;6.88;4.78;;;;;;;;;;5095561;28;20028;-41
2022/12/19 01:47:28;;;;;;;8.05;5.13;;;;;;;;;;5094380;28;20036;-45
2022/12/19 01:49:54;;;;;;;7.28;4.78;;;;;;;;;;5090159;28;20024;-41
2022/12/19 01:52:20;;;;;;;6.78;4.75;;;;;;;;;;5095031;28;20067;-41
2022/12/19 01:54:47;;;;;;;6.57;4.65;;;;;;;;;;5094006;28;20505;-41
2022/12/19 01:57:15;;;;;;;6.50;4.43;;;;;;;;;;5100051;28;20023;-41
2022/12/19 01:59:44;;;;;;;6.70;4.63;;;;;;;;;;5096435;28;20131;-41
2022/12/19 02:02:12;;;;;;;6.25;4.57;;;;;;;;;;5093396;28;20027;-41
2022/12/19 02:04:38;;;;;;;9.40;5.30;;;;;;;;;;5094596;28;20024;-41
2022/12/19 02:07:06;;;;;;;8.88;5.38;;;;;;;;;;5100003;28;20111;-41
2022/12/19 02:09:32;;;;;;;6.28;4.70;;;;;;;;;;5093977;28;20385;-44
2022/12/19 02:11:59;;;;;;;7.47;5.32;;;;;;;;;;5093075;28;20465;-41
2022/12/19 02:14:25;;;;;;;8.15;5.22;;;;;;;;;;5095397;28;20028;-41
2022/12/19 02:16:53;;;;;;;11.35;5.68;;;;;;;;;;5086685;28;20108;-41
2022/12/19 02:19:34;;;;;;;7.50;5.13;;;;;;;;;;5094585;28;20062;-41
2022/12/19 02:22:09;;;;;;;7.28;5.40;;;;;;;;;;5094566;28;20056;-41
2022/12/19 02:24:47;;;;;;;6.28;4.50;;;;;;;;;;5091448;28;20030;-42
2022/12/19 02:27:32;;;;;;;6.63;4.53;;;;;;;;;;5091224;28;20536;-41
2022/12/19 02:30:03;;;;;;;7.82;4.85;;;;;;;;;;5108451;28;20031;-41
2022/12/19 02:32:34;;;;;;;6.88;4.80;;;;;;;;;;5092941;28;20461;-44
2022/12/19 02:35:14;;;;;;;8.32;5.28;;;;;;;;;;5094105;28;20496;-41
2022/12/19 02:37:45;;;;;;;6.20;4.72;;;;;;;;;;5092921;28;20025;-41
2022/12/19 02:40:14;;;;;;;8.55;5.30;;;;;;;;;;5093067;28;20023;-41
2022/12/19 02:42:43;;;;;;;5.53;4.25;;;;;;;;;;5092444;28;20351;-41
2022/12/19 02:45:10;;;;;;;8.60;5.47;;;;;;;;;;5089561;28;20056;-41
2022/12/19 02:47:37;;;;;;;6.05;4.85;;;;;;;;;;5085962;28;20032;-41
2022/12/19 02:50:04;;;;;;;7.60;4.80;;;;;;;;;;5092561;28;20081;-41
2022/12/19 02:52:30;;;;;;;7.97;5.90;;;;;;;;;;5093216;28;20107;-45
2022/12/19 02:54:58;;;;;;;8.65;5.88;;;;;;;;;;5093974;28;20075;-41
2022/12/19 02:57:33;;;;;;;6.90;5.07;;;;;;;;;;5098001;28;20381;-42
2022/12/19 03:00:08;;;;;;;7.82;5.18;;;;;;;;;;5085405;28;20085;-41
2022/12/19 03:02:41;;;;;;;8.32;5.15;;;;;;;;;;5092146;28;20032;-41
2022/12/19 03:05:10;;;;;;;6.10;5.07;;;;;;;;;;5094009;28;20560;-41
2022/12/19 03:07:46;;;;;;;6.10;4.65;;;;;;;;;;5091512;28;20440;-41
2022/12/19 03:10:27;;;;;;;6.75;4.78;;;;;;;;;;5094539;28;20050;-41
2022/12/19 03:12:56;;;;;;;6.97;5.50;;;;;;;;;;5078612;28;20063;-41
2022/12/19 03:15:23;;;;;;;7.22;5.32;;;;;;;;;;5093759;28;20076;-41
2022/12/19 03:17:49;;;;;;;8.23;5.63;;;;;;;;;;5085047;28;20187;-41
2022/12/19 03:20:25;;;;;;;7.47;5.30;;;;;;;;;;5074998;28;20381;-41
2022/12/19 03:22:51;;;;;;;8.70;6.28;;;;;;;;;;5092624;28;20123;-41
2022/12/19 03:25:18;;;;;;;6.72;5.05;;;;;;;;;;5092029;28;20031;-41
2022/12/19 03:27:45;;;;;;;7.70;5.40;;;;;;;;;;5092542;28;20047;-41
2022/12/19 03:30:12;;;;;;;7.28;5.00;;;;;;;;;;5106589;28;20031;-41
2022/12/19 03:32:39;;;;;;;8.07;5.50;;;;;;;;;;5099637;28;20056;-41
2022/12/19 03:35:13;;;;;;;7.88;5.22;;;;;;;;;;5090908;28;20025;-41
2022/12/19 03:37:40;;;;;;;8.18;5.30;;;;;;;;;;5082375;28;20020;-41
2022/12/19 03:40:15;;;;;;;6.78;5.13;;;;;;;;;;5093360;28;20414;-41
2022/12/19 03:45:31;;;;;;;6.78;5.15;;;;;;;;;;5086226;28;20128;-41
2022/12/19 03:48:00;;;;;;;6.25;4.75;;;;;;;;;;5090272;28;20028;-41
2022/12/19 03:50:30;;;;;;;7.57;5.18;;;;;;;;;;5075489;28;20384;-41
2022/12/19 03:53:01;;;;;;;6.93;5.35;;;;;;;;;;5092483;28;20473;-41
2022/12/19 03:55:36;;;;;;;7.68;5.20;;;;;;;;;;5092347;28;20067;-41
2022/12/19 03:58:07;;;;;;;6.68;5.05;;;;;;;;;;5090435;28;20057;-41
2022/12/19 04:00:35;;;;;;;8.40;5.45;;;;;;;;;;5092385;28;20032;-42
2022/12/19 04:03:02;;;;;;;7.60;5.57;;;;;;;;;;5079133;28;20028;-41
2022/12/19 04:05:28;;;;;;;8.68;5.03;;;;;;;;;;5103547;28;20069;-45
2022/12/19 04:07:56;;;;;;;7.32;5.30;;;;;;;;;;5092848;28;20070;-41
2022/12/19 04:10:23;;;;;;;8.75;6.13;;;;;;;;;;5089543;28;20024;-41
2022/12/19 04:12:58;;;;;;;7.10;5.63;;;;;;;;;;5091201;28;20144;-41
2022/12/19 04:15:31;;;;;;;8.23;5.32;;;;;;;;;;5092674;28;20028;-41
2022/12/19 04:17:58;;;;;;;7.78;5.40;;;;;;;;;;5083767;28;20039;-41
2022/12/19 04:20:25;;;;;;;7.30;5.53;;;;;;;;;;5071357;28;21708;-41
2022/12/19 04:23:00;;;;;;;6.38;5.03;;;;;;;;;;5099659;28;20028;-41
2022/12/19 04:25:38;;;;;;;6.13;4.78;;;;;;;;;;5092142;28;20492;-41
2022/12/19 04:28:07;;;;;;;6.82;5.10;;;;;;;;;;5092145;28;20020;-41
2022/12/19 04:30:33;;;;;;;6.68;4.80;;;;;;;;;;5101018;28;20095;-42
2022/12/19 04:32:59;;;;;;;7.95;5.47;;;;;;;;;;5083970;28;20035;-41
2022/12/19 04:35:25;;;;;;;8.38;5.90;;;;;;;;;;5092596;28;20020;-41
2022/12/19 04:37:51;;;;;;;7.70;5.65;;;;;;;;;;5091326;28;20081;-41
2022/12/19 04:40:17;;;;;;;7.00;4.97;;;;;;;;;;5099822;28;20032;-42
2022/12/19 04:42:44;;;;;;;7.78;5.30;;;;;;;;;;5085590;28;20028;-43
2022/12/19 04:45:10;;;;;;;7.70;5.10;;;;;;;;;;5091382;28;20095;-41
2022/12/19 04:47:36;;;;;;;7.88;5.45;;;;;;;;;;5091242;28;20024;-43
2022/12/19 04:50:02;;;;;;;7.25;5.07;;;;;;;;;;5092366;28;20065;-41
2022/12/19 04:52:28;;;;;;;7.60;5.28;;;;;;;;;;5090768;28;20023;-44
2022/12/19 04:54:54;;;;;;;7.90;5.90;;;;;;;;;;5088950;28;20048;-41
2022/12/19 04:57:20;;;;;;;7.72;5.18;;;;;;;;;;5105414;28;20039;-41
2022/12/19 04:59:46;;;;;;;9.60;5.82;;;;;;;;;;5091311;28;20028;-41
2022/12/19 05:02:12;;;;;;;8.18;6.15;;;;;;;;;;5091879;28;20031;-41
2022/12/19 05:04:38;;;;;;;6.60;5.10;;;;;;;;;;5085855;28;20109;-41
2022/12/19 05:07:04;;;;;;;5.90;4.55;;;;;;;;;;5091262;28;20039;-41
2022/12/19 05:09:30;;;;;;;9.23;5.97;;;;;;;;;;5091386;28;20020;-45
2022/12/19 05:11:55;;;;;;;7.25;5.03;;;;;;;;;;5101260;28;20024;-41
2022/12/19 05:14:21;;;;;;;6.38;5.35;;;;;;;;;;5092807;28;20465;-41
2022/12/19 05:16:47;;;;;;;7.63;5.03;;;;;;;;;;5085608;28;20231;-41
2022/12/19 05:19:13;;;;;;;8.35;5.78;;;;;;;;;;5092064;28;20020;-41
2022/12/19 05:21:40;;;;;;;8.38;5.80;;;;;;;;;;5089952;28;20024;-41
2022/12/19 05:24:06;;;;;;;7.65;5.22;;;;;;;;;;5094229;28;20035;-41
2022/12/19 05:26:32;;;;;;;8.02;5.47;;;;;;;;;;5097368;28;20036;-45
2022/12/19 05:28:58;;;;;;;6.60;5.30;;;;;;;;;;5096517;28;20063;-41
2022/12/19 05:31:24;;;;;;;11.18;5.72;;;;;;;;;;5091709;28;20024;-41
2022/12/19 05:33:50;;;;;;;10.32;6.80;;;;;;;;;;5071860;28;20027;-41
2022/12/19 05:36:17;;;;;;;9.32;5.65;;;;;;;;;;5091176;28;20073;-41
2022/12/19 05:38:43;;;;;;;9.88;5.55;;;;;;;;;;5090420;28;20032;-41
2022/12/19 05:41:10;;;;;;;8.15;5.50;;;;;;;;;;5089266;28;20021;-43
2022/12/19 05:43:36;;;;;;;7.45;4.88;;;;;;;;;;5087357;28;20016;-42
2022/12/19 05:46:03;;;;;;;8.85;5.65;;;;;;;;;;5090310;28;20039;-43
2022/12/19 05:48:29;;;;;;;10.77;5.65;;;;;;;;;;5089529;28;20025;-45
2022/12/19 05:50:55;;;;;;;8.75;5.50;;;;;;;;;;5071450;28;20036;-43
2022/12/19 05:53:21;;;;;;;6.65;5.03;;;;;;;;;;5089638;28;20091;-44
2022/12/19 05:55:47;;;;;;;7.70;5.65;;;;;;;;;;5074081;28;20854;-43
2022/12/19 05:58:13;;;;;;;9.50;5.20;;;;;;;;;;5069602;28;20020;-43
2022/12/19 06:00:39;;;;;;;7.57;5.13;;;;;;;;;;5066544;28;20020;-43
2022/12/19 06:03:05;;;;;;;7.22;5.07;;;;;;;;;;5068533;28;20044;-43
2022/12/19 06:05:31;;;;;;;7.85;5.05;;;;;;;;;;5069293;28;20103;-47
2022/12/19 06:07:57;;;;;;;9.43;5.20;;;;;;;;;;5070098;28;20105;-43
2022/12/19 06:10:23;;;;;;;9.40;5.47;;;;;;;;;;5069982;28;20522;-43
2022/12/19 06:12:50;;;;;;;7.05;4.40;;;;;;;;;;5068654;28;20121;-43
2022/12/19 06:15:16;;;;;;;8.05;4.80;;;;;;;;;;5069713;28;20028;-43
2022/12/19 06:17:42;;;;;;;9.70;5.78;;;;;;;;;;5050362;28;20025;-43
2022/12/19 06:20:08;;;;;;;12.20;6.00;;;;;;;;;;5071105;28;20389;-43
2022/12/19 06:22:34;;;;;;;9.38;6.13;;;;;;;;;;5065464;28;20028;-44
2022/12/19 06:25:00;;;;;;;8.10;5.05;;;;;;;;;;5071216;28;20024;-41
2022/12/19 06:27:26;;;;;;;9.40;4.93;;;;;;;;;;5072591;28;20104;-42
2022/12/19 06:29:52;;;;;;;10.80;5.40;;;;;;;;;;5072091;28;20702;-42
2022/12/19 06:32:18;;;;;;;9.98;5.13;;;;;;;;;;5071278;28;20389;-42
2022/12/19 06:34:44;;;;;;;7.18;4.88;;;;;;;;;;5070937;28;20037;-43
2022/12/19 06:37:11;;;;;;;7.38;4.70;;;;;;;;;;5070723;28;20465;-42
2022/12/19 06:39:37;;;;;;;9.82;4.78;;;;;;;;;;5072310;28;20032;-42
2022/12/19 06:42:21;;;;;;;6.85;4.82;;;;;;;;;;5070090;28;20038;-44
2022/12/19 06:44:47;;;;;;;8.10;4.50;;;;;;;;;;5062619;28;20020;-43
2022/12/19 06:47:13;;;;;;;6.93;5.03;;;;;;;;;;5071603;28;20833;-43
2022/12/19 06:49:39;;;;;;;9.23;4.90;;;;;;;;;;5071985;28;20535;-42
2022/12/19 06:52:05;;;;;;;8.13;4.80;;;;;;;;;;5072283;28;20024;-42
2022/12/19 06:54:31;;;;;;;9.48;5.18;;;;;;;;;;5072493;28;20531;-46
2022/12/19 06:56:57;;;;;;;9.90;5.13;;;;;;;;;;5072118;28;20107;-42
2022/12/19 06:59:23;;;;;;;6.45;4.40;;;;;;;;;;5073892;28;20043;-43
2022/12/19 07:01:50;;;;;;;8.27;4.93;;;;;;;;;;5071554;28;20454;-42
2022/12/19 07:04:18;;;;;;;6.93;4.82;;;;;;;;;;5072929;28;20028;-42
2022/12/19 07:06:44;;;;;;;6.53;4.82;;;;;;;;;;5071715;28;20056;-43
2022/12/19 07:09:10;;;;;;;7.32;4.82;;;;;;;;;;5070688;28;20028;-43
2022/12/19 07:11:36;;;;;;;10.00;4.47;;;;;;;;;;5072223;28;20027;-42
2022/12/19 07:14:02;;;;;;;7.50;5.25;;;;;;;;;;5072922;28;20032;-42
2022/12/19 07:16:28;;;;;;;8.90;5.10;;;;;;;;;;5072958;28;20028;-46
2022/12/19 07:18:54;;;;;;;11.05;5.60;;;;;;;;;;5071273;28;20024;-42
2022/12/19 07:21:21;;;;;;;16.95;5.05;;;;;;;;;;5071884;28;20025;-42
2022/12/19 07:23:47;;;;;;;7.03;4.45;;;;;;;;;;5071713;28;20109;-42
2022/12/19 07:26:13;;;;;;;7.28;4.70;;;;;;;;;;5071766;28;20075;-42
2022/12/19 07:28:39;;;;;;;6.22;4.63;;;;;;;;;;5072963;28;20033;-42
2022/12/19 07:31:05;;;;;;;11.10;4.82;;;;;;;;;;5072300;28;20021;-42
2022/12/19 07:33:31;;;;;;;8.98;4.10;;;;;;;;;;5067497;28;20031;-46
2022/12/19 07:35:57;;;;;;;6.78;4.15;;;;;;;;;;5071778;28;20028;-42
2022/12/19 07:38:23;;;;;;;8.75;5.05;;;;;;;;;;5072377;28;20465;-42
2022/12/19 07:40:49;;;;;;;6.60;4.88;;;;;;;;;;5072262;28;20093;-42
2022/12/19 07:43:15;;;;;;;15.68;5.10;;;;;;;;;;5071522;28;20032;-43
2022/12/19 07:45:41;;;;;;;9.10;5.65;;;;;;;;;;5072201;28;20043;-42
2022/12/19 07:48:08;;;;;;;7.78;4.68;;;;;;;;;;5071925;28;20452;-42
2022/12/19 07:50:34;;;;;;;7.35;4.70;;;;;;;;;;5071883;28;20064;-43
2022/12/19 07:53:01;;;;;;;8.35;5.68;;;;;;;;;;5059099;28;20028;-42
2022/12/19 07:55:27;;;;;;;9.73;4.90;;;;;;;;;;5064108;28;20689;-43
2022/12/19 07:57:54;;;;;;;7.38;4.15;;;;;;;;;;5055822;28;20038;-43
2022/12/19 08:00:20;;;;;;;9.63;4.88;;;;;;;;;;5066711;28;20012;-43
2022/12/19 08:02:46;;;;;;;9.13;4.97;;;;;;;;;;5055299;28;20486;-43
2022/12/19 08:05:12;;;;;;;6.72;4.50;;;;;;;;;;5072155;28;20099;-43
2022/12/19 08:07:38;;;;;;;9.25;4.30;;;;;;;;;;5071030;28;20060;-42
2022/12/19 08:10:05;;;;;;;10.55;5.10;;;;;;;;;;5071773;28;20056;-43
2022/12/19 08:12:34;;;;;;;10.75;5.70;;;;;;;;;;5070975;28;20093;-45
2022/12/19 08:15:00;;;;;;;7.43;5.07;;;;;;;;;;5064076;28;20063;-42
2022/12/19 08:17:26;;;;;;;6.65;4.97;;;;;;;;;;5062017;28;20056;-43
2022/12/19 08:19:52;;;;;;;9.02;4.63;;;;;;;;;;5056174;28;20052;-42
2022/12/19 08:22:18;;;;;;;7.28;4.05;;;;;;;;;;5069146;28;20382;-43
2022/12/19 08:24:44;;;;;;;8.40;4.50;;;;;;;;;;5070044;28;20470;-43
2022/12/19 08:27:10;;;;;;;8.27;4.43;;;;;;;;;;5070957;28;20051;-43
2022/12/19 08:29:36;;;;;;;8.90;5.15;;;;;;;;;;5066824;28;20469;-44
2022/12/19 08:32:02;;;;;;;8.70;4.72;;;;;;;;;;5065463;28;20032;-43
2022/12/19 08:34:28;;;;;;;7.97;4.80;;;;;;;;;;5069727;28;20037;-43
2022/12/19 08:36:54;;;;;;;7.20;4.25;;;;;;;;;;5066604;28;20075;-44
2022/12/19 08:39:20;;;;;;;12.25;4.63;;;;;;;;;;5070888;28;20460;-43
2022/12/19 08:41:46;;;;;;;8.48;4.85;;;;;;;;;;5065459;28;20024;-43
2022/12/19 08:44:12;;;;;;;12.13;5.00;;;;;;;;;;5070239;28;20020;-45
2022/12/19 08:46:39;;;;;;;9.88;4.97;;;;;;;;;;5058321;28;20489;-43
2022/12/19 08:49:05;;;;;;;10.15;4.78;;;;;;;;;;5052159;28;20028;-44
2022/12/19 08:51:31;;;;;;;10.13;5.05;;;;;;;;;;5056230;28;20028;-46
2022/12/19 08:53:57;;;;;;;6.57;4.53;;;;;;;;;;5065361;28;20027;-44
2022/12/19 08:56:23;;;;;;;7.03;5.15;;;;;;;;;;5070307;28;20040;-43
2022/12/19 08:58:50;;;;;;;10.13;4.53;;;;;;;;;;5066016;28;20033;-43
2022/12/19 09:01:17;;;;;;;7.25;4.43;;;;;;;;;;5052363;28;20033;-44
2022/12/19 09:03:44;;;;;;;8.27;4.35;;;;;;;;;;5065206;28;20025;-44
2022/12/19 09:06:11;;;;;;;8.73;4.68;;;;;;;;;;5068496;28;20211;-45
2022/12/19 09:08:38;;;;;;;8.88;5.00;;;;;;;;;;5052097;28;20473;-44
2022/12/19 09:11:05;;;;;;;8.90;4.43;;;;;;;;;;5071204;28;20020;-43
2022/12/19 09:13:32;;;;;;;6.75;5.00;;;;;;;;;;5069984;28;20070;-47
2022/12/19 09:16:01;;;;;;;7.05;4.88;;;;;;;;;;5072718;28;20037;-43
2022/12/19 09:18:28;;;;;;;8.30;4.40;;;;;;;;;;5070723;28;20024;-43
2022/12/19 09:20:54;;;;;;;7.30;4.22;;;;;;;;;;5079174;28;20016;-43
2022/12/19 09:23:21;;;;;;;8.60;4.43;;;;;;;;;;5072815;28;20099;-44
2022/12/19 09:25:47;;;;;;;7.35;4.78;;;;;;;;;;5064337;28;20087;-44
2022/12/19 09:28:13;;;;;;;7.05;4.85;;;;;;;;;;5067417;28;20032;-43
2022/12/19 09:30:39;;;;;;;13.32;4.85;;;;;;;;;;5041737;28;20055;-43
2022/12/19 09:33:05;;;;;;;6.18;4.35;;;;;;;;;;5066740;28;20485;-43
2022/12/19 09:35:31;;;;;;;6.88;4.38;;;;;;;;;;5071492;28;20082;-45
2022/12/19 09:37:57;;;;;;;6.00;4.18;;;;;;;;;;5070161;28;20474;-41
2022/12/19 09:40:23;;;;;;;7.70;4.65;;;;;;;;;;5070969;28;20107;-42
2022/12/19 09:42:57;;;;;;;8.20;4.55;;;;;;;;;;5069503;28;20024;-42
2022/12/19 09:45:36;;;;;;;7.22;4.53;;;;;;;;;;5065928;28;20021;-42
2022/12/19 09:48:03;;;;;;;6.90;4.20;;;;;;;;;;5065995;28;20067;-42
2022/12/19 09:50:43;;;;;;;8.98;4.40;;;;;;;;;;5069322;28;20029;-45
2022/12/19 09:53:17;;;;;;;7.22;4.38;;;;;;;;;;5068299;28;20062;-42
2022/12/19 09:55:44;;;;;;;7.47;4.20;;;;;;;;;;5069129;28;20152;-42
2022/12/19 09:58:16;;;;;;;8.48;5.05;;;;;;;;;;5069742;28;20029;-42
2022/12/19 10:00:43;;;;;;;6.38;4.25;;;;;;;;;;5073539;28;20039;-42
2022/12/19 10:03:21;;;;;;;6.40;4.53;;;;;;;;;;5071763;28;20346;-42
2022/12/19 10:05:50;;;;;;;6.13;4.63;;;;;;;;;;5071636;28;20028;-42
2022/12/19 10:08:19;;;;;;;7.28;4.75;;;;;;;;;;5073417;28;20049;-42
2022/12/19 10:11:04;;;;;;;7.82;4.75;;;;;;;;;;5073261;28;20488;-43
2022/12/19 10:13:36;;;;;;;6.35;4.28;;;;;;;;;;5071714;28;20078;-45
2022/12/19 10:16:13;;;;;;;8.13;5.20;;;;;;;;;;5067798;28;20043;-42
2022/12/19 10:18:53;;;;;;;8.10;4.63;;;;;;;;;;5066434;28;20016;-42
2022/12/19 10:21:28;;;;;;;6.47;4.22;;;;;;;;;;5074283;28;20059;-42
2022/12/19 10:23:54;;;;;;;6.47;5.07;;;;;;;;;;5072890;28;20029;-42
2022/12/19 10:26:25;;;;;;;6.28;4.30;;;;;;;;;;5070287;28;20039;-42
2022/12/19 10:28:51;;;;;;;7.70;5.07;;;;;;;;;;5072970;28;20021;-42
2022/12/19 10:31:22;;;;;;;7.43;4.72;;;;;;;;;;5073851;28;20070;-42
2022/12/19 10:34:00;;;;;;;7.10;4.72;;;;;;;;;;5072522;28;20424;-42
2022/12/19 10:36:26;;;;;;;6.50;4.47;;;;;;;;;;5067245;28;20110;-42
2022/12/19 10:39:06;;;;;;;6.88;4.82;;;;;;;;;;5072879;28;20020;-42
2022/12/19 10:41:32;;;;;;;7.28;5.03;;;;;;;;;;5072597;28;20033;-44
2022/12/19 10:44:06;;;;;;;8.05;4.68;;;;;;;;;;5072221;28;20103;-42
2022/12/19 10:46:32;;;;;;;5.82;4.40;;;;;;;;;;5072271;28;20059;-46
2022/12/19 10:48:58;;;;;;;7.90;5.30;;;;;;;;;;5072969;28;20426;-42
2022/12/19 10:51:26;;;;;;;7.97;4.75;;;;;;;;;;5070035;28;20090;-42
2022/12/19 10:53:54;;;;;;;7.43;5.13;;;;;;;;;;5067717;28;20519;-42
2022/12/19 10:56:22;;;;;;;6.55;4.68;;;;;;;;;;5072729;28;20095;-42
2022/12/19 10:58:50;;;;;;;7.25;5.40;;;;;;;;;;5052675;28;20870;-42
2022/12/19 11:01:16;;;;;;;7.78;4.85;;;;;;;;;;5072979;28;20029;-42
2022/12/19 11:03:44;;;;;;;7.00;4.63;;;;;;;;;;5069573;28;20466;-42
2022/12/19 11:06:30;;;;;;;7.88;5.70;;;;;;;;;;5072389;28;20060;-42
2022/12/19 11:09:12;;;;;;;7.38;4.95;;;;;;;;;;5061886;28;20067;-42
2022/12/19 11:11:37;;;;;;;9.55;5.10;;;;;;;;;;5067959;28;20100;-42
2022/12/19 11:14:18;;;;;;;8.25;5.18;;;;;;;;;;5075076;28;20099;-42
2022/12/19 11:16:44;;;;;;;9.38;5.13;;;;;;;;;;5065894;28;20083;-42
2022/12/19 11:19:39;;;;;;;7.25;5.10;;;;;;;;;;5071385;28;20024;-42
2022/12/19 11:22:05;;;;;;;7.72;5.00;;;;;;;;;;5053673;28;20033;-42
2022/12/19 11:24:35;;;;;;;8.63;5.10;;;;;;;;;;5072101;28;20019;-45
2022/12/19 11:27:02;;;;;;;9.10;5.30;;;;;;;;;;5068679;28;20365;-43
2022/12/19 11:29:41;;;;;;;8.05;5.07;;;;;;;;;;5073472;28;20035;-42
2022/12/19 11:32:21;;;;;;;8.05;5.22;;;;;;;;;;5069852;28;20040;-42
2022/12/19 11:34:49;;;;;;;8.30;5.45;;;;;;;;;;5066188;28;20108;-42
2022/12/19 11:37:21;;;;;;;9.93;6.45;;;;;;;;;;5061724;28;20097;-43
2022/12/19 11:39:47;;;;;;;;;;;;;;;;;;5071815;28;20020;-44
2022/12/19 11:42:36;;;;;;;9.27;6.43;;;;;;;;;;5071904;28;19908;-45
2022/12/19 11:45:11;;;;;;;9.48;6.00;;;;;;;;;;5023480;28;20052;-43
2022/12/19 11:47:43;;;;;;;9.23;5.55;;;;;;;;;;5020973;28;20438;-42
2022/12/19 11:50:17;;;;;;;9.43;6.22;;;;;;;;;;5020671;28;20513;-42
2022/12/19 11:53:06;;;;;;;8.43;5.10;;;;;;;;;;5026935;28;20026;-42
2022/12/19 11:55:41;;;;;;;7.63;5.40;;;;;;;;;;5018319;28;20056;-45
2022/12/19 11:58:09;;;;;;;8.50;5.32;;;;;;;;;;5028470;28;20071;-42
2022/12/19 12:00:36;;;;;;;9.32;5.13;;;;;;;;;;5027467;28;20025;-42
2022/12/19 12:03:21;;;;;;;7.90;5.25;;;;;;;;;;5027000;28;20044;-44
2022/12/19 12:05:48;;;;;;;6.93;5.45;;;;;;;;;;5040770;28;20064;-43
2022/12/19 12:08:26;;;;;;;7.13;5.07;;;;;;;;;;5028676;28;20030;-42
2022/12/19 12:10:57;;;;;;;7.53;5.50;;;;;;;;;;5022694;28;20044;-43
2022/12/19 12:13:30;;;;;;;10.00;5.32;;;;;;;;;;5029482;28;20017;-42
2022/12/19 12:16:08;;;;;;;10.52;5.75;;;;;;;;;;5029363;28;20045;-42
2022/12/19 12:18:34;;;;;;;7.60;4.60;;;;;;;;;;5022242;28;20056;-44
2022/12/19 12:21:07;;;;;;;7.22;4.63;;;;;;;;;;5029378;28;20014;-42
2022/12/19 12:23:44;;;;;;;9.10;5.88;;;;;;;;;;5071699;28;20016;-45
2022/12/19 12:26:26;;;;;;;8.75;5.65;;;;;;;;;;5071359;28;20033;-42
2022/12/19 12:28:56;;;;;;;7.13;4.95;;;;;;;;;;5072803;28;20082;-42
2022/12/19 12:31:22;;;;;;;7.65;5.10;;;;;;;;;;5063428;28;20067;-42
2022/12/19 12:34:03;;;;;;;6.20;4.70;;;;;;;;;;5068411;28;20433;-43
2022/12/19 12:36:34;;;;;;;9.13;5.30;;;;;;;;;;5071288;28;20051;-45
2022/12/19 12:39:11;;;;;;;8.38;5.07;;;;;;;;;;5071690;28;20020;-43
2022/12/19 12:44:22;;;;;;;7.28;4.93;;;;;;;;;;5071422;28;20516;-42
2022/12/19 12:46:51;;;;;;;5.55;4.28;;;;;;;;;;5056916;28;20029;-42
2022/12/19 12:49:31;;;;;;;6.47;4.63;;;;;;;;;;5071297;28;20047;-42
2022/12/19 12:51:59;;;;;;;7.72;5.03;;;;;;;;;;5062642;28;20019;-42
2022/12/19 12:54:28;;;;;;;6.88;4.88;;;;;;;;;;5063266;28;20060;-42
2022/12/19 12:56:54;;;;;;;8.15;5.95;;;;;;;;;;5079707;28;20031;-42
2022/12/19 12:59:22;;;;;;;7.03;4.60;;;;;;;;;;5069154;28;20024;-42
2022/12/19 13:01:52;;;;;;;7.20;5.10;;;;;;;;;;5069891;28;20094;-43
2022/12/19 13:04:26;;;;;;;7.20;5.10;;;;;;;;;;5070925;28;20028;-42
2022/12/19 13:06:52;;;;;;;7.28;5.03;;;;;;;;;;5069644;28;20574;-42
2022/12/19 13:09:18;;;;;;;6.35;5.00;;;;;;;;;;5071065;28;20112;-41
2022/12/19 13:14:36;;;;;;;7.70;5.32;;;;;;;;;;5064647;28;20082;-46
2022/12/19 13:17:06;;;;;;;8.20;4.85;;;;;;;;;;5063642;28;20036;-42
2022/12/19 13:19:33;;;;;;;7.53;5.00;;;;;;;;;;5048756;28;20462;-46
2022/12/19 13:22:09;;;;;;;8.68;5.68;;;;;;;;;;5070261;28;20032;-42
2022/12/19 13:24:54;;;;;;;6.15;4.63;;;;;;;;;;5067884;28;20045;-43
2022/12/19 13:27:20;;;;;;;6.22;4.32;;;;;;;;;;5070100;28;20733;-42
2022/12/19 13:30:06;;;;;;;8.40;5.07;;;;;;;;;;5070020;28;20056;-42
2022/12/19 13:32:41;;;;;;;8.27;5.47;;;;;;;;;;5056580;28;20442;-45
2022/12/19 13:35:10;;;;;;;6.78;5.05;;;;;;;;;;5068482;28;20037;-42
2022/12/19 13:37:40;;;;;;;9.50;4.68;;;;;;;;;;5076389;28;20175;-43
2022/12/19 13:40:14;;;;;;;8.57;5.18;;;;;;;;;;5074142;28;20039;-43
2022/12/19 13:45:48;;;;;;;6.30;4.70;;;;;;;;;;5071819;28;20102;-42
2022/12/19 13:48:16;;;;;;;6.70;4.55;;;;;;;;;;5076799;28;20416;-42
2022/12/19 13:50:46;;;;;;;7.55;5.00;;;;;;;;;;5076212;28;20373;-42
2022/12/19 13:53:19;;;;;;;10.07;5.07;;;;;;;;;;5070278;28;20024;-42
2022/12/19 13:55:45;;;;;;;9.82;4.90;;;;;;;;;;5076043;28;20052;-43
2022/12/19 13:58:20;;;;;;;8.15;4.63;;;;;;;;;;5076467;28;20028;-42
2022/12/19 14:00:47;;;;;;;5.60;4.38;;;;;;;;;;5068765;28;20028;-43
2022/12/19 14:03:17;;;;;;;8.52;4.90;;;;;;;;;;5084565;28;20016;-43
2022/12/19 14:05:43;;;;;;;6.82;5.13;;;;;;;;;;5076140;28;20036;-42
2022/12/19 14:08:11;;;;;;;6.53;4.13;;;;;;;;;;5076311;28;20036;-44
2022/12/19 14:10:41;;;;;;;7.38;4.68;;;;;;;;;;5075937;28;20058;-42
2022/12/19 14:15:56;;;;;;;6.22;4.45;;;;;;;;;;5074097;28;20102;-42
2022/12/19 14:18:23;;;;;;;8.52;4.82;;;;;;;;;;5069148;28;20489;-42
2022/12/19 14:20:50;;;;;;;5.72;4.38;;;;;;;;;;5076328;28;20608;-42
2022/12/19 14:23:17;;;;;;;6.95;4.60;;;;;;;;;;5075773;28;20032;-43
2022/12/19 14:25:48;;;;;;;21.27;5.53;;;;;;;;;;5076211;28;20021;-42
2022/12/19 14:28:18;;;;;;;6.30;3.92;;;;;;;;;;5075886;28;20440;-43
2022/12/19 14:30:47;;;;;;;7.97;4.93;;;;;;;;;;5075586;28;20017;-45
2022/12/19 14:33:15;;;;;;;6.22;4.22;;;;;;;;;;5069017;28;20052;-45
2022/12/19 14:35:51;;;;;;;5.85;4.43;;;;;;;;;;5070203;28;20028;-43
2022/12/19 14:38:18;;;;;;;7.78;4.78;;;;;;;;;;5076283;28;20027;-42
2022/12/19 14:40:44;;;;;;;5.93;4.50;;;;;;;;;;5071455;28;20021;-43
2022/12/19 14:46:18;;;;;;;7.60;5.10;;;;;;;;;;5070171;28;20052;-44
2022/12/19 14:48:47;;;;;;;6.32;4.35;;;;;;;;;;5069266;28;20033;-42
2022/12/19 14:51:15;;;;;;;9.18;5.82;;;;;;;;;;5073250;28;20103;-43
2022/12/19 14:54:01;;;;;;;7.13;4.75;;;;;;;;;;5072341;28;20369;-43
2022/12/19 14:56:28;;;;;;;6.68;5.07;;;;;;;;;;5072380;28;20429;-43
2022/12/19 14:58:55;;;;;;;6.85;4.68;;;;;;;;;;5070805;28;20087;-42
2022/12/19 15:01:23;;;;;;;5.43;3.88;;;;;;;;;;5062323;28;20478;-43
2022/12/19 15:03:52;;;;;;;9.68;5.07;;;;;;;;;;5065711;28;20107;-43
2022/12/19 15:06:18;;;;;;;8.60;5.30;;;;;;;;;;5072646;28;20028;-42
2022/12/19 15:08:45;;;;;;;7.30;4.85;;;;;;;;;;5066793;28;20055;-42
2022/12/19 15:14:09;;;;;;;7.57;4.95;;;;;;;;;;5072645;28;20040;-43